createdAt,value
2023-03-17T00:01:51.640Z,2.67
2023-03-17T00:04:19.748Z,4.53
2023-03-17T00:06:47.736Z,4.68
2023-03-17T00:09:19.530Z,2.60
2023-03-17T00:11:47.394Z,2.13
2023-03-17T00:14:14.802Z,2.88
2023-03-17T00:16:44.682Z,1.73
2023-03-17T00:19:30.068Z,2.30
2023-03-17T00:21:59.227Z,4.35
2023-03-17T00:24:26.366Z,3.38
2023-03-17T00:26:54.237Z,2.60
2023-03-17T00:29:21.445Z,2.85
2023-03-17T00:31:49.518Z,2.60
2023-03-17T00:34:18.975Z,3.08
2023-03-17T00:36:50.267Z,4.57
2023-03-17T00:39:18.762Z,5.35
2023-03-17T00:44:12.712Z,2.05
2023-03-17T00:46:41.875Z,4.47
2023-03-17T00:51:46.071Z,3.00
2023-03-17T00:54:14.282Z,5.05
2023-03-17T00:56:42.542Z,2.47
2023-03-17T00:59:29.876Z,2.75
2023-03-17T01:01:57.461Z,2.47
2023-03-17T01:04:25.034Z,2.17
2023-03-17T01:06:53.098Z,7.20
2023-03-17T01:09:24.305Z,3.45
2023-03-17T01:11:51.669Z,3.50
2023-03-17T01:14:18.964Z,3.13
2023-03-17T01:16:47.957Z,2.70
2023-03-17T01:19:15.436Z,3.78
2023-03-17T01:21:42.768Z,4.28
2023-03-17T01:24:10.004Z,4.15
2023-03-17T01:26:37.758Z,6.43
2023-03-17T01:29:06.509Z,3.65
2023-03-17T01:31:34.311Z,3.47
2023-03-17T01:34:01.447Z,5.43
2023-03-17T01:36:28.591Z,6.63
2023-03-17T01:38:55.876Z,4.45
2023-03-17T01:41:22.986Z,4.03
2023-03-17T01:43:50.156Z,5.28
2023-03-17T01:46:27.938Z,3.28
2023-03-17T01:49:10.106Z,4.10
2023-03-17T01:51:44.594Z,2.08
2023-03-17T01:54:17.237Z,3.83
2023-03-17T01:56:47.418Z,3.15
2023-03-17T01:59:31.667Z,3.85
2023-03-17T02:02:03.742Z,1.25
2023-03-17T02:04:31.728Z,1.83
2023-03-17T02:06:59.245Z,3.05
2023-03-17T02:09:28.459Z,2.90
2023-03-17T02:11:57.163Z,3.83
2023-03-17T02:14:24.585Z,5.43
2023-03-17T02:16:51.812Z,3.85
2023-03-17T02:19:19.058Z,2.42
2023-03-17T02:21:58.200Z,3.38
2023-03-17T02:24:28.429Z,2.00
2023-03-17T02:26:58.528Z,3.63
2023-03-17T02:29:25.711Z,3.50
2023-03-17T02:31:53.581Z,5.28
2023-03-17T02:34:20.803Z,4.47
2023-03-17T02:36:47.920Z,4.45
2023-03-17T02:39:15.042Z,2.40
2023-03-17T02:41:42.637Z,5.78
2023-03-17T02:44:09.929Z,3.33
2023-03-17T02:46:37.113Z,4.45
2023-03-17T02:49:05.298Z,4.07
2023-03-17T02:51:32.467Z,2.55
2023-03-17T02:53:59.663Z,3.47
2023-03-17T02:56:26.975Z,6.72
2023-03-17T02:58:54.006Z,6.28
2023-03-17T03:01:21.408Z,2.35
2023-03-17T03:03:50.438Z,3.20
2023-03-17T03:06:17.685Z,3.15
2023-03-17T03:08:44.956Z,3.85
2023-03-17T03:11:12.339Z,4.43
2023-03-17T03:13:39.565Z,2.72
2023-03-17T03:16:07.310Z,4.38
2023-03-17T03:18:34.569Z,4.18
2023-03-17T03:21:04.119Z,3.50
2023-03-17T03:23:31.660Z,4.78
2023-03-17T03:25:58.907Z,5.55
2023-03-17T03:28:26.152Z,4.90
2023-03-17T03:30:53.334Z,5.25
2023-03-17T03:33:20.516Z,4.93
2023-03-17T03:35:47.637Z,2.88
2023-03-17T03:38:14.752Z,4.15
2023-03-17T03:40:42.473Z,5.40
2023-03-17T03:43:21.999Z,3.08
2023-03-17T03:45:50.194Z,2.45
2023-03-17T03:48:17.435Z,3.13
2023-03-17T03:50:44.676Z,3.40
2023-03-17T03:53:11.832Z,5.18
2023-03-17T03:55:38.949Z,2.17
2023-03-17T03:58:06.870Z,5.90
2023-03-17T04:00:34.010Z,3.45
2023-03-17T04:03:01.729Z,2.92
2023-03-17T04:05:28.936Z,2.33
2023-03-17T04:07:56.243Z,6.05
2023-03-17T04:10:23.445Z,4.57
2023-03-17T04:12:51.234Z,2.72
2023-03-17T04:15:20.062Z,3.08
2023-03-17T04:17:47.603Z,3.17
2023-03-17T04:20:17.140Z,3.13
2023-03-17T04:22:44.672Z,6.13
2023-03-17T04:25:14.594Z,6.70
2023-03-17T04:27:42.873Z,7.28
2023-03-17T04:30:13.937Z,4.45
2023-03-17T04:32:41.891Z,3.65
2023-03-17T04:35:16.322Z,5.85
2023-03-17T04:37:43.732Z,3.22
2023-03-17T04:40:13.118Z,4.90
2023-03-17T04:45:10.177Z,7.10
2023-03-17T04:50:05.701Z,4.75
2023-03-17T04:52:32.832Z,4.90
2023-03-17T04:54:59.924Z,2.42
2023-03-17T04:57:27.079Z,3.78
2023-03-17T04:59:54.256Z,3.70
2023-03-17T05:02:21.338Z,4.38
2023-03-17T05:04:48.801Z,5.63
2023-03-17T05:07:15.897Z,2.70
2023-03-17T05:09:43.168Z,3.53
2023-03-17T05:12:10.655Z,3.05
2023-03-17T05:14:37.915Z,4.90
2023-03-17T05:17:05.305Z,3.25
2023-03-17T05:19:32.478Z,4.97
2023-03-17T05:21:59.690Z,4.85
2023-03-17T05:24:27.195Z,4.07
2023-03-17T05:26:54.358Z,5.18
2023-03-17T05:29:21.406Z,3.92
2023-03-17T05:31:48.913Z,12.52
2023-03-17T05:34:16.160Z,3.95
2023-03-17T05:36:43.756Z,4.88
2023-03-17T05:39:12.302Z,7.10
2023-03-17T05:41:41.246Z,4.75
2023-03-17T05:44:08.947Z,4.43
2023-03-17T05:46:36.605Z,5.90
2023-03-17T05:49:04.014Z,4.40
2023-03-17T05:51:31.754Z,9.35
2023-03-17T05:53:58.859Z,6.75
2023-03-17T05:56:27.437Z,5.82
2023-03-17T05:58:54.622Z,7.55
2023-03-17T06:01:21.747Z,7.00
2023-03-17T06:03:50.047Z,6.53
2023-03-17T06:06:17.214Z,4.30
2023-03-17T06:08:44.626Z,6.78
2023-03-17T06:11:11.936Z,6.15
2023-03-17T06:13:38.970Z,4.60
2023-03-17T06:16:06.710Z,8.32
2023-03-17T06:18:33.823Z,6.28
2023-03-17T06:21:00.742Z,4.75
2023-03-17T06:23:27.680Z,7.07
2023-03-17T06:25:54.817Z,6.60
2023-03-17T06:28:22.088Z,8.18
2023-03-17T06:30:49.413Z,13.50
2023-03-17T06:33:18.272Z,9.40
2023-03-17T06:35:46.000Z,9.77
2023-03-17T06:38:13.538Z,10.02
2023-03-17T06:40:40.756Z,7.78
2023-03-17T06:43:07.664Z,8.10
2023-03-17T06:45:35.637Z,8.45
2023-03-17T06:48:02.674Z,5.32
2023-03-17T06:50:29.996Z,7.20
2023-03-17T06:52:57.229Z,8.57
2023-03-17T06:55:24.546Z,3.17
2023-03-17T06:57:52.459Z,6.82
2023-03-17T07:00:21.112Z,4.20
2023-03-17T07:02:49.609Z,5.47
2023-03-17T07:05:16.864Z,7.55
2023-03-17T07:07:44.524Z,4.90
2023-03-17T07:10:13.778Z,5.32
2023-03-17T07:12:41.469Z,5.05
2023-03-17T07:15:09.344Z,4.95
2023-03-17T07:17:36.477Z,3.58
2023-03-17T07:20:03.913Z,4.50
2023-03-17T07:22:31.076Z,2.55
2023-03-17T07:24:58.344Z,3.83
2023-03-17T07:27:26.572Z,6.45
2023-03-17T07:29:53.959Z,4.72
2023-03-17T07:32:21.030Z,3.40
2023-03-17T07:34:48.443Z,4.15
2023-03-17T07:37:15.617Z,2.20
2023-03-17T07:39:42.667Z,2.00
2023-03-17T07:42:12.076Z,3.60
2023-03-17T07:44:41.647Z,4.03
2023-03-17T07:47:09.549Z,4.03
2023-03-17T07:49:41.637Z,5.90
2023-03-17T07:52:10.392Z,3.45
2023-03-17T07:54:37.686Z,2.78
2023-03-17T07:57:05.597Z,5.47
2023-03-17T07:59:33.152Z,2.40
2023-03-17T08:02:01.644Z,2.08
2023-03-17T08:04:29.370Z,3.55
2023-03-17T08:06:57.260Z,3.63
2023-03-17T08:09:25.649Z,4.68
2023-03-17T08:11:52.821Z,5.95
2023-03-17T08:14:19.994Z,4.85
2023-03-17T08:16:47.335Z,5.53
2023-03-17T08:19:14.555Z,3.13
2023-03-17T08:21:42.197Z,4.13
2023-03-17T08:24:09.859Z,3.63
2023-03-17T08:26:37.727Z,7.43
2023-03-17T08:29:05.221Z,3.85
2023-03-17T08:31:33.921Z,6.63
2023-03-17T08:34:02.746Z,5.50
2023-03-17T08:36:30.325Z,5.38
2023-03-17T08:38:57.751Z,6.90
2023-03-17T08:41:27.013Z,6.10
2023-03-17T08:43:54.919Z,10.18
2023-03-17T08:46:25.844Z,5.57
2023-03-17T08:48:54.993Z,7.47
2023-03-17T08:51:24.727Z,6.82
2023-03-17T08:53:53.030Z,8.88
2023-03-17T08:56:22.747Z,9.82
2023-03-17T08:58:50.936Z,11.75
2023-03-17T09:01:21.322Z,7.40
2023-03-17T09:03:49.635Z,9.50
2023-03-17T09:06:17.068Z,9.32
2023-03-17T09:08:47.182Z,9.48
2023-03-17T09:11:17.209Z,10.20
2023-03-17T09:13:46.449Z,7.80
2023-03-17T09:16:18.140Z,9.13
2023-03-17T09:18:46.628Z,10.18
2023-03-17T09:21:15.382Z,8.82
2023-03-17T09:23:42.994Z,9.90
2023-03-17T09:26:10.238Z,11.25
2023-03-17T09:28:37.341Z,9.75
2023-03-17T09:31:07.837Z,7.78
2023-03-17T09:33:35.005Z,10.77
2023-03-17T09:36:02.231Z,7.88
2023-03-17T09:38:29.882Z,8.35
2023-03-17T09:41:19.758Z,9.93
2023-03-17T09:43:58.565Z,9.20
2023-03-17T09:46:53.279Z,10.93
2023-03-17T09:49:25.179Z,7.53
2023-03-17T09:51:53.224Z,9.75
2023-03-17T09:54:38.164Z,8.60
2023-03-17T09:57:26.837Z,8.77
2023-03-17T10:00:19.098Z,9.15
2023-03-17T10:02:47.422Z,10.50
2023-03-17T10:05:27.271Z,9.55
2023-03-17T10:08:29.007Z,11.48
2023-03-17T10:11:22.308Z,14.98
2023-03-17T10:14:09.464Z,12.98
2023-03-17T10:16:39.693Z,15.25
2023-03-17T10:19:12.696Z,11.82
2023-03-17T10:21:48.612Z,16.27
2023-03-17T10:24:16.317Z,12.63
2023-03-17T10:26:48.789Z,13.00
2023-03-17T10:29:22.828Z,19.48
2023-03-17T10:31:51.740Z,12.65
2023-03-17T10:34:31.045Z,15.02
2023-03-17T10:37:05.513Z,13.60
2023-03-17T10:39:41.658Z,14.40
2023-03-17T10:42:11.599Z,16.77
2023-03-17T10:44:51.065Z,13.60
2023-03-17T10:47:21.731Z,17.13
2023-03-17T10:49:49.491Z,15.88
2023-03-17T10:52:23.035Z,15.27
2023-03-17T10:54:53.141Z,16.45
2023-03-17T10:57:22.157Z,15.65
2023-03-17T11:02:27.799Z,15.07
2023-03-17T11:05:00.824Z,17.02
2023-03-17T11:07:36.524Z,18.13
2023-03-17T11:10:05.585Z,16.23
2023-03-17T11:15:13.266Z,16.73
2023-03-17T11:18:00.925Z,17.92
2023-03-17T11:21:04.072Z,16.42
2023-03-17T11:23:49.001Z,17.13
2023-03-17T11:26:34.877Z,16.98
2023-03-17T11:29:08.005Z,18.38
2023-03-17T11:31:44.296Z,15.70
2023-03-17T11:34:35.824Z,14.40
2023-03-17T11:37:20.918Z,13.93
2023-03-17T11:39:56.481Z,15.20
2023-03-17T11:42:34.642Z,16.27
2023-03-17T11:45:02.580Z,12.00
2023-03-17T11:47:49.695Z,13.18
2023-03-17T11:50:31.282Z,15.13
2023-03-17T11:53:13.222Z,12.98
2023-03-17T11:55:46.203Z,13.90
2023-03-17T11:58:25.294Z,16.17
2023-03-17T12:01:00.404Z,15.63
2023-03-17T12:03:47.922Z,13.02
2023-03-17T12:09:00.829Z,18.42
2023-03-17T12:11:35.091Z,18.38
2023-03-17T12:14:20.049Z,14.25
2023-03-17T12:16:49.394Z,12.07
2023-03-17T12:19:28.889Z,14.13
2023-03-17T12:22:28.318Z,13.63
2023-03-17T12:25:16.635Z,14.25
2023-03-17T12:27:58.366Z,10.68
2023-03-17T12:30:45.619Z,15.82
2023-03-17T12:33:38.050Z,12.73
2023-03-17T12:36:07.878Z,12.82
2023-03-17T12:38:35.858Z,12.43
2023-03-17T12:41:11.987Z,15.85
2023-03-17T12:43:48.433Z,10.82
2023-03-17T12:46:41.607Z,10.13
2023-03-17T12:49:40.894Z,14.00
2023-03-17T12:52:26.142Z,13.85
2023-03-17T12:54:53.794Z,14.98
2023-03-17T12:57:27.215Z,11.77
2023-03-17T13:00:20.414Z,14.57
2023-03-17T13:03:07.712Z,12.50
2023-03-17T13:05:37.357Z,11.95
2023-03-17T13:08:08.406Z,10.10
2023-03-17T13:10:50.343Z,12.80
2023-03-17T13:13:40.644Z,13.00
2023-03-17T13:16:27.937Z,11.57
2023-03-17T13:19:22.576Z,10.00
2023-03-17T13:22:03.537Z,12.45
2023-03-17T13:24:48.018Z,10.93
2023-03-17T13:27:35.274Z,13.05
2023-03-17T13:30:29.060Z,12.98
2023-03-17T13:33:11.299Z,11.05
2023-03-17T13:36:05.544Z,16.13
2023-03-17T13:38:32.508Z,11.82
2023-03-17T13:41:21.051Z,11.75
2023-03-17T13:44:10.437Z,10.93
2023-03-17T13:46:38.973Z,10.80
2023-03-17T13:49:26.591Z,15.82
2023-03-17T13:54:30.422Z,15.63
2023-03-17T13:57:28.508Z,10.70
2023-03-17T14:00:22.706Z,16.80
2023-03-17T14:02:51.421Z,10.10
2023-03-17T14:05:27.186Z,14.60
2023-03-17T14:08:02.679Z,12.65
2023-03-17T14:10:32.495Z,9.60
2023-03-17T14:13:23.100Z,9.13
2023-03-17T14:16:07.379Z,10.40
2023-03-17T14:18:42.209Z,12.35
2023-03-17T14:21:33.330Z,13.57
2023-03-17T14:24:04.386Z,13.48
2023-03-17T14:26:32.978Z,10.57
2023-03-17T14:29:02.692Z,14.20
2023-03-17T14:31:30.574Z,11.50
2023-03-17T14:33:59.684Z,16.13
2023-03-17T14:38:56.820Z,12.85
2023-03-17T14:41:26.215Z,11.27
2023-03-17T14:43:57.960Z,10.43
2023-03-17T14:46:37.211Z,12.73
2023-03-17T14:49:21.231Z,11.48
2023-03-17T14:51:51.387Z,12.18
2023-03-17T14:54:20.889Z,11.55
2023-03-17T14:57:00.001Z,13.93
2023-03-17T14:59:36.813Z,25.50
2023-03-17T15:02:32.295Z,11.18
2023-03-17T15:05:04.368Z,9.13
2023-03-17T15:07:40.356Z,11.15
2023-03-17T15:10:19.325Z,11.65
2023-03-17T15:12:48.284Z,8.25
2023-03-17T15:15:23.365Z,10.45
2023-03-17T15:17:59.316Z,7.35
2023-03-17T15:20:28.890Z,11.85
2023-03-17T15:23:03.626Z,11.30
2023-03-17T15:25:36.814Z,12.63
2023-03-17T15:28:11.951Z,13.85
2023-03-17T15:30:48.386Z,12.02
2023-03-17T15:33:25.511Z,10.75
2023-03-17T15:35:52.633Z,11.00
2023-03-17T15:38:21.525Z,14.27
2023-03-17T15:40:49.960Z,9.90
2023-03-17T15:43:18.548Z,13.00
2023-03-17T15:45:46.482Z,12.63
2023-03-17T15:48:25.390Z,10.13
2023-03-17T15:50:55.413Z,9.77
2023-03-17T15:53:23.136Z,10.98
2023-03-17T15:55:50.145Z,12.50
2023-03-17T15:58:17.174Z,9.65
2023-03-17T16:00:53.467Z,10.73
2023-03-17T16:03:33.377Z,8.40
2023-03-17T16:06:02.601Z,10.35
2023-03-17T16:08:30.296Z,8.52
2023-03-17T16:10:57.461Z,8.40
2023-03-17T16:13:25.353Z,8.23
2023-03-17T16:15:58.596Z,7.18
2023-03-17T16:18:37.738Z,8.20
2023-03-17T16:21:05.399Z,7.28
2023-03-17T16:23:36.863Z,9.80
2023-03-17T16:26:15.027Z,11.73
2023-03-17T16:28:49.022Z,7.43
2023-03-17T16:31:30.226Z,7.95
2023-03-17T16:33:57.778Z,7.45
2023-03-17T16:36:25.713Z,7.30
2023-03-17T16:38:53.406Z,9.63
2023-03-17T16:41:24.026Z,7.97
2023-03-17T16:44:02.312Z,7.80
2023-03-17T16:46:35.160Z,6.97
2023-03-17T16:49:04.070Z,6.22
2023-03-17T16:51:31.097Z,6.72
2023-03-17T16:53:58.218Z,7.93
2023-03-17T16:56:27.219Z,8.60
2023-03-17T17:01:24.991Z,7.38
2023-03-17T17:03:52.278Z,8.10
2023-03-17T17:06:20.054Z,6.78
2023-03-17T17:08:48.207Z,6.05
2023-03-17T17:11:16.799Z,6.13
2023-03-17T17:13:45.975Z,10.73
2023-03-17T17:18:51.811Z,5.43
2023-03-17T17:21:18.850Z,6.32
2023-03-17T17:23:46.417Z,7.47
2023-03-17T17:26:13.570Z,5.40
2023-03-17T17:28:41.002Z,5.95
2023-03-17T17:31:09.444Z,10.73
2023-03-17T17:33:37.807Z,11.35
2023-03-17T17:36:08.155Z,5.70
2023-03-17T17:38:35.282Z,8.48
2023-03-17T17:41:09.059Z,14.23
2023-03-17T17:43:36.337Z,15.63
2023-03-17T17:46:03.860Z,9.55
2023-03-17T17:48:30.915Z,17.30
2023-03-17T17:50:58.350Z,22.30
2023-03-17T17:53:25.486Z,30.67
2023-03-17T17:55:52.656Z,34.13
2023-03-17T17:58:23.910Z,31.83
2023-03-17T18:00:52.673Z,24.70
2023-03-17T18:03:24.572Z,34.85
2023-03-17T18:05:53.341Z,29.90
2023-03-17T18:08:20.861Z,29.98
2023-03-17T18:10:49.656Z,18.95
2023-03-17T18:13:17.933Z,22.10
2023-03-17T18:15:44.935Z,21.63
2023-03-17T18:18:12.003Z,19.20
2023-03-17T18:20:39.085Z,20.73
2023-03-17T18:23:06.176Z,21.52
2023-03-17T18:25:33.306Z,21.45
2023-03-17T18:28:01.533Z,14.02
2023-03-17T18:30:31.253Z,14.77
2023-03-17T18:33:15.507Z,12.77
2023-03-17T18:35:43.003Z,7.20
2023-03-17T18:38:10.345Z,14.90
2023-03-17T18:40:37.996Z,11.80
2023-03-17T18:43:05.204Z,38.80
2023-03-17T18:45:32.376Z,29.42
2023-03-17T18:47:59.540Z,18.08
2023-03-17T18:50:26.567Z,9.82
2023-03-17T18:52:53.862Z,10.00
2023-03-17T18:55:21.025Z,12.07
2023-03-17T18:57:48.133Z,10.48
2023-03-17T19:00:17.433Z,11.88
2023-03-17T19:05:11.850Z,22.30
2023-03-17T19:07:40.642Z,18.33
2023-03-17T19:10:12.238Z,9.18
2023-03-17T19:12:39.891Z,15.68
2023-03-17T19:15:08.776Z,12.30
2023-03-17T19:17:36.011Z,25.38
2023-03-17T19:20:03.662Z,34.03
2023-03-17T19:22:30.727Z,15.50
2023-03-17T19:24:57.807Z,27.70
2023-03-17T19:27:25.005Z,12.60
2023-03-17T19:29:52.066Z,12.38
2023-03-17T19:32:19.209Z,14.95
2023-03-17T19:34:47.825Z,10.50
2023-03-17T19:37:15.141Z,9.52
2023-03-17T19:39:44.924Z,11.82
2023-03-17T19:42:12.702Z,15.38
2023-03-17T19:44:40.138Z,8.30
2023-03-17T19:47:08.446Z,10.55
2023-03-17T19:49:37.472Z,12.50
2023-03-17T19:52:06.414Z,12.90
2023-03-17T19:54:34.015Z,7.95
2023-03-17T19:57:01.211Z,11.52
2023-03-17T19:59:28.265Z,17.58
2023-03-17T20:01:55.634Z,13.98
2023-03-17T20:04:23.230Z,12.32
2023-03-17T20:06:55.619Z,15.65
2023-03-17T20:09:26.029Z,11.52
2023-03-17T20:11:53.763Z,13.23
2023-03-17T20:14:21.139Z,10.80
2023-03-17T20:16:48.972Z,12.80
2023-03-17T20:19:16.792Z,13.18
2023-03-17T20:21:44.510Z,15.80
2023-03-17T20:24:14.596Z,11.18
2023-03-17T20:26:43.519Z,20.45
2023-03-17T20:29:13.295Z,24.92
2023-03-17T20:31:42.006Z,25.60
2023-03-17T20:34:10.189Z,16.40
2023-03-17T20:36:37.537Z,15.75
2023-03-17T20:39:05.770Z,18.70
2023-03-17T20:41:32.880Z,16.10
2023-03-17T20:43:59.860Z,39.70
2023-03-17T20:46:26.956Z,44.28
2023-03-17T20:48:58.745Z,32.92
2023-03-17T20:51:27.367Z,31.88
2023-03-17T20:53:55.218Z,23.40
2023-03-17T20:56:24.202Z,11.98
2023-03-17T20:58:53.236Z,15.98
2023-03-17T21:01:21.712Z,15.82
2023-03-17T21:03:49.893Z,18.10
2023-03-17T21:06:18.343Z,16.75
2023-03-17T21:08:46.230Z,13.93
2023-03-17T21:11:20.653Z,11.98
2023-03-17T21:13:47.658Z,11.98
2023-03-17T21:16:33.988Z,10.85
2023-03-17T21:19:01.548Z,9.98
2023-03-17T21:21:28.582Z,9.85
2023-03-17T21:23:56.259Z,9.52
2023-03-17T21:26:24.694Z,11.50
2023-03-17T21:28:52.621Z,9.65
2023-03-17T21:31:19.751Z,9.52
2023-03-17T21:33:50.480Z,10.55
2023-03-17T21:36:18.512Z,8.88
2023-03-17T21:38:45.617Z,7.53
2023-03-17T21:41:22.463Z,10.07
2023-03-17T21:43:50.476Z,11.40
2023-03-17T21:46:17.567Z,10.05
2023-03-17T21:48:44.585Z,8.32
2023-03-17T21:51:11.618Z,11.80
2023-03-17T21:53:39.103Z,9.77
2023-03-17T21:56:06.507Z,12.43
2023-03-17T21:58:33.477Z,10.45
2023-03-17T22:01:01.593Z,10.57
2023-03-17T22:03:29.164Z,11.82
2023-03-17T22:05:56.836Z,11.70
2023-03-17T22:08:24.329Z,13.00
2023-03-17T22:10:52.039Z,9.90
2023-03-17T22:13:19.257Z,14.00
2023-03-17T22:15:46.431Z,11.18
2023-03-17T22:18:13.680Z,10.80
2023-03-17T22:20:40.795Z,9.40
2023-03-17T22:23:08.384Z,11.35
2023-03-17T22:25:35.646Z,8.70
2023-03-17T22:28:02.999Z,10.60
2023-03-17T22:30:30.780Z,10.65
2023-03-17T22:32:58.176Z,9.27
2023-03-17T22:35:25.338Z,9.32
2023-03-17T22:37:52.614Z,8.35
2023-03-17T22:40:19.872Z,6.97
2023-03-17T22:42:47.119Z,8.18
2023-03-17T22:45:15.187Z,9.25
2023-03-17T22:47:42.561Z,9.38
2023-03-17T22:50:10.705Z,7.70
2023-03-17T22:52:38.425Z,9.80
2023-03-17T22:55:06.668Z,11.00
2023-03-17T22:57:34.336Z,12.48
2023-03-17T23:00:01.674Z,10.20
2023-03-17T23:02:28.887Z,10.05
2023-03-17T23:04:56.107Z,9.18
2023-03-17T23:07:23.328Z,8.27
2023-03-17T23:09:50.502Z,11.30
2023-03-17T23:12:17.968Z,10.95
2023-03-17T23:14:45.255Z,7.97
2023-03-17T23:17:13.342Z,8.38
2023-03-17T23:19:41.276Z,8.75
2023-03-17T23:22:08.582Z,7.07
2023-03-17T23:24:35.830Z,9.18
2023-03-17T23:27:03.014Z,8.85
2023-03-17T23:29:30.143Z,10.48
2023-03-17T23:31:57.604Z,9.70
2023-03-17T23:34:25.951Z,7.32
2023-03-17T23:36:53.491Z,10.18
2023-03-17T23:39:20.950Z,10.57
2023-03-17T23:41:48.072Z,6.93
2023-03-17T23:44:15.210Z,7.65
2023-03-17T23:46:45.203Z,7.85
2023-03-17T23:49:12.377Z,9.85
2023-03-17T23:51:40.945Z,7.10
2023-03-17T23:54:08.551Z,6.97
2023-03-17T23:56:36.087Z,7.05
2023-03-17T23:59:04.186Z,8.63
